createdAt,value
2019-03-24T00:01:25.093Z,5.60
2019-03-24T00:03:27.292Z,4.93
2019-03-24T00:05:29.560Z,4.10
2019-03-24T00:07:31.851Z,5.60
2019-03-24T00:09:34.409Z,5.30
2019-03-24T00:11:36.630Z,5.27
2019-03-24T00:13:38.841Z,5.60
2019-03-24T00:15:41.070Z,4.63
2019-03-24T00:17:43.280Z,4.23
2019-03-24T00:19:45.613Z,7.00
2019-03-24T00:21:47.834Z,4.87
2019-03-24T00:23:50.047Z,5.07
2019-03-24T00:25:52.268Z,6.17
2019-03-24T00:27:54.484Z,5.60
2019-03-24T00:29:56.730Z,5.80
2019-03-24T00:31:58.963Z,4.73
2019-03-24T00:34:01.170Z,5.43
2019-03-24T00:36:03.396Z,5.73
2019-03-24T00:38:05.614Z,5.10
2019-03-24T00:40:08.435Z,5.97
2019-03-24T00:42:10.713Z,5.70
2019-03-24T00:44:12.945Z,5.40
2019-03-24T00:46:15.162Z,5.67
2019-03-24T00:48:17.378Z,5.23
2019-03-24T00:50:19.598Z,5.37
2019-03-24T00:52:21.813Z,5.80
2019-03-24T00:54:24.029Z,4.47
2019-03-24T00:56:26.261Z,5.80
2019-03-24T00:58:28.489Z,5.10
2019-03-24T01:00:47.202Z,5.83
2019-03-24T01:02:49.417Z,5.07
2019-03-24T01:04:51.641Z,5.50
2019-03-24T01:06:53.932Z,5.43
2019-03-24T01:08:56.157Z,5.27
2019-03-24T01:10:58.389Z,6.47
2019-03-24T01:13:00.593Z,5.23
2019-03-24T01:15:03.354Z,4.87
2019-03-24T01:17:05.568Z,6.47
2019-03-24T01:19:08.081Z,5.20
2019-03-24T01:21:10.306Z,4.40
2019-03-24T01:23:12.526Z,5.20
2019-03-24T01:25:14.754Z,3.63
2019-03-24T01:27:16.970Z,5.27
2019-03-24T01:29:19.189Z,5.20
2019-03-24T01:31:21.422Z,5.00
2019-03-24T01:33:23.637Z,3.53
2019-03-24T01:35:25.866Z,3.60
2019-03-24T01:37:28.083Z,3.73
2019-03-24T01:39:30.301Z,4.77
2019-03-24T01:41:32.535Z,4.40
2019-03-24T01:43:34.749Z,6.30
2019-03-24T01:45:36.961Z,5.33
2019-03-24T01:47:39.170Z,5.83
2019-03-24T01:49:41.681Z,4.20
2019-03-24T01:51:43.914Z,5.43
2019-03-24T01:53:46.126Z,4.50
2019-03-24T01:55:48.349Z,5.30
2019-03-24T01:57:50.633Z,4.77
2019-03-24T01:59:52.897Z,4.00
2019-03-24T02:01:55.110Z,4.67
2019-03-24T02:03:57.646Z,5.70
2019-03-24T02:06:00.118Z,5.57
2019-03-24T02:08:02.341Z,5.40
2019-03-24T02:10:05.146Z,5.60
2019-03-24T02:12:07.354Z,5.57
2019-03-24T02:14:09.566Z,5.40
2019-03-24T02:16:11.782Z,4.50
2019-03-24T02:18:13.990Z,4.93
2019-03-24T02:20:16.462Z,4.63
2019-03-24T02:22:18.674Z,3.53
2019-03-24T02:24:21.122Z,7.00
2019-03-24T02:26:23.407Z,5.33
2019-03-24T02:28:25.665Z,4.30
2019-03-24T02:30:28.235Z,4.30
2019-03-24T02:32:30.442Z,4.20
2019-03-24T02:34:32.660Z,3.67
2019-03-24T02:36:34.891Z,3.13
2019-03-24T02:38:37.102Z,4.00
2019-03-24T02:40:39.670Z,4.90
2019-03-24T02:42:41.880Z,4.13
2019-03-24T02:44:44.097Z,4.57
2019-03-24T02:46:46.322Z,4.67
2019-03-24T02:48:48.526Z,5.67
2019-03-24T02:50:50.917Z,6.57
2019-03-24T02:52:53.122Z,6.67
2019-03-24T02:54:55.337Z,9.27
2019-03-24T02:56:57.564Z,6.97
2019-03-24T02:58:59.793Z,13.63
2019-03-24T03:01:02.014Z,7.40
2019-03-24T03:03:04.234Z,6.43
2019-03-24T03:05:06.757Z,6.17
2019-03-24T03:07:09.123Z,6.60
2019-03-24T03:09:11.340Z,6.30
2019-03-24T03:11:13.567Z,8.03
2019-03-24T03:13:15.817Z,7.07
2019-03-24T03:15:18.091Z,6.40
2019-03-24T03:17:20.315Z,6.23
2019-03-24T03:19:22.522Z,6.03
2019-03-24T03:21:24.746Z,6.50
2019-03-24T03:23:26.952Z,5.93
2019-03-24T03:25:29.178Z,5.63
2019-03-24T03:27:31.390Z,5.70
2019-03-24T03:29:33.606Z,4.83
2019-03-24T03:31:35.833Z,4.90
2019-03-24T03:33:38.049Z,4.73
2019-03-24T03:35:40.370Z,4.87
2019-03-24T03:37:42.607Z,4.70
2019-03-24T03:39:44.886Z,4.60
2019-03-24T03:41:47.109Z,4.07
2019-03-24T03:43:49.371Z,4.63
2019-03-24T03:45:51.597Z,4.10
2019-03-24T03:47:53.842Z,6.50
2019-03-24T03:49:56.055Z,4.50
2019-03-24T03:51:58.617Z,3.30
2019-03-24T03:54:00.848Z,3.47
2019-03-24T03:56:03.127Z,3.13
2019-03-24T03:58:05.355Z,3.00
2019-03-24T04:00:08.381Z,3.43
2019-03-24T04:02:10.611Z,3.43
2019-03-24T04:04:12.827Z,4.00
2019-03-24T04:06:15.054Z,4.73
2019-03-24T04:08:17.531Z,4.43
2019-03-24T04:10:19.743Z,4.00
2019-03-24T04:12:21.965Z,4.70
2019-03-24T04:14:24.170Z,6.47
2019-03-24T04:16:26.396Z,5.57
2019-03-24T04:18:28.622Z,7.03
2019-03-24T04:20:30.845Z,5.37
2019-03-24T04:22:33.484Z,6.47
2019-03-24T04:24:35.701Z,5.77
2019-03-24T04:26:38.022Z,5.33
2019-03-24T04:28:40.239Z,5.77
2019-03-24T04:30:42.470Z,5.97
2019-03-24T04:32:44.679Z,5.07
2019-03-24T04:34:46.889Z,5.70
2019-03-24T04:36:49.114Z,5.70
2019-03-24T04:38:51.337Z,5.57
2019-03-24T04:40:53.676Z,6.50
2019-03-24T04:42:55.957Z,6.90
2019-03-24T04:44:58.161Z,5.83
2019-03-24T04:47:00.381Z,6.50
2019-03-24T04:49:03.043Z,6.03
2019-03-24T04:51:05.368Z,5.73
2019-03-24T04:53:07.585Z,6.40
2019-03-24T04:55:09.799Z,4.63
2019-03-24T04:57:12.021Z,5.10
2019-03-24T04:59:14.246Z,5.40
2019-03-24T05:01:16.466Z,6.53
2019-03-24T05:03:18.681Z,7.80
2019-03-24T05:05:20.898Z,7.77
2019-03-24T05:07:23.125Z,8.03
2019-03-24T05:09:25.370Z,9.57
2019-03-24T05:11:27.590Z,8.67
2019-03-24T05:13:29.806Z,8.63
2019-03-24T05:15:32.022Z,9.73
2019-03-24T05:17:34.245Z,9.13
2019-03-24T05:19:36.466Z,10.47
2019-03-24T05:21:38.698Z,10.97
2019-03-24T05:23:40.910Z,10.47
2019-03-24T05:25:43.130Z,12.53
2019-03-24T05:27:45.357Z,12.20
2019-03-24T05:29:47.855Z,12.80
2019-03-24T05:31:50.082Z,15.20
2019-03-24T05:33:52.289Z,14.17
2019-03-24T05:35:54.510Z,15.07
2019-03-24T05:37:56.734Z,17.80
2019-03-24T05:39:58.945Z,18.80
2019-03-24T05:42:01.165Z,18.97
2019-03-24T05:44:03.717Z,21.03
2019-03-24T05:46:05.945Z,20.27
2019-03-24T05:48:08.453Z,22.37
2019-03-24T05:50:10.677Z,25.53
2019-03-24T05:52:12.953Z,24.10
2019-03-24T05:54:15.235Z,21.43
2019-03-24T05:56:17.458Z,23.17
2019-03-24T05:58:19.685Z,25.30
2019-03-24T06:00:22.258Z,25.03
2019-03-24T06:02:24.481Z,27.97
2019-03-24T06:04:26.693Z,28.53
2019-03-24T06:06:28.927Z,30.90
2019-03-24T06:08:31.137Z,28.50
2019-03-24T06:10:33.353Z,27.83
2019-03-24T06:12:35.577Z,26.87
2019-03-24T06:14:37.836Z,27.37
2019-03-24T06:16:40.382Z,31.63
2019-03-24T06:18:42.598Z,31.77
2019-03-24T06:20:44.809Z,31.87
2019-03-24T06:22:47.034Z,30.97
2019-03-24T06:24:49.233Z,28.90
2019-03-24T06:26:51.465Z,28.60
2019-03-24T06:28:53.687Z,29.90
2019-03-24T06:30:56.246Z,29.33
2019-03-24T06:32:58.468Z,29.23
2019-03-24T06:35:00.679Z,30.70
2019-03-24T06:37:02.912Z,29.40
2019-03-24T06:39:06.116Z,30.20
2019-03-24T06:41:08.327Z,31.80
2019-03-24T06:43:10.542Z,29.80
2019-03-24T06:45:12.757Z,31.97
2019-03-24T06:47:14.986Z,31.40
2019-03-24T06:49:17.197Z,29.10
2019-03-24T06:51:19.422Z,31.30
2019-03-24T06:53:21.625Z,26.90
2019-03-24T06:55:23.841Z,26.40
2019-03-24T06:57:26.069Z,26.03
2019-03-24T06:59:28.581Z,21.97
2019-03-24T07:01:30.806Z,25.20
2019-03-24T07:03:33.027Z,21.70
2019-03-24T07:05:35.243Z,22.10
2019-03-24T07:07:37.469Z,22.17
2019-03-24T07:09:39.681Z,20.20
2019-03-24T07:11:41.902Z,19.87
2019-03-24T07:13:44.123Z,17.33
2019-03-24T07:15:46.333Z,21.10
2019-03-24T07:17:48.553Z,22.97
2019-03-24T07:19:50.782Z,21.60
2019-03-24T07:21:53.005Z,19.17
2019-03-24T07:23:55.221Z,20.33
2019-03-24T07:25:57.440Z,18.17
2019-03-24T07:27:59.657Z,20.47
2019-03-24T07:30:01.919Z,21.47
2019-03-24T07:32:04.237Z,18.20
2019-03-24T07:34:06.453Z,19.60
2019-03-24T07:36:08.661Z,21.10
2019-03-24T07:38:10.937Z,21.20
2019-03-24T07:40:13.205Z,18.67
2019-03-24T07:42:15.761Z,20.43
2019-03-24T07:44:17.978Z,19.00
2019-03-24T07:46:20.499Z,18.80
2019-03-24T07:48:22.769Z,19.40
2019-03-24T07:50:24.981Z,21.27
2019-03-24T07:52:27.217Z,18.77
2019-03-24T07:54:29.430Z,18.63
2019-03-24T07:56:31.660Z,18.20
2019-03-24T07:58:33.889Z,18.33
2019-03-24T08:00:36.588Z,18.17
2019-03-24T08:02:51.079Z,17.93
2019-03-24T08:04:48.890Z,18.73
2019-03-24T08:06:51.142Z,18.07
2019-03-24T08:08:53.362Z,17.97
2019-03-24T08:10:55.622Z,18.30
2019-03-24T08:12:58.288Z,18.90
2019-03-24T08:15:00.705Z,20.60
2019-03-24T08:17:02.942Z,21.10
2019-03-24T08:19:05.148Z,19.60
2019-03-24T08:21:07.371Z,21.53
2019-03-24T08:23:09.589Z,22.00
2019-03-24T08:25:11.810Z,22.17
2019-03-24T08:27:14.036Z,25.40
2019-03-24T08:29:16.248Z,22.30
2019-03-24T08:31:18.465Z,22.50
2019-03-24T08:33:20.694Z,21.73
2019-03-24T08:35:22.917Z,22.67
2019-03-24T08:37:25.137Z,23.00
2019-03-24T08:39:27.349Z,22.13
2019-03-24T08:41:29.565Z,23.30
2019-03-24T08:43:31.802Z,27.10
2019-03-24T08:45:34.013Z,26.90
2019-03-24T08:47:36.235Z,29.03
2019-03-24T08:49:38.446Z,31.00
2019-03-24T08:51:40.660Z,32.23
2019-03-24T08:53:42.885Z,31.80
2019-03-24T08:55:45.101Z,27.60
2019-03-24T08:57:47.326Z,29.53
2019-03-24T08:59:49.553Z,30.97
2019-03-24T09:01:51.778Z,31.57
2019-03-24T09:03:53.981Z,33.07
2019-03-24T09:05:56.190Z,31.53
2019-03-24T09:07:58.718Z,32.70
2019-03-24T09:10:00.931Z,29.97
2019-03-24T09:12:03.132Z,29.73
2019-03-24T09:14:05.356Z,26.90
2019-03-24T09:16:07.560Z,28.47
2019-03-24T09:18:09.773Z,27.47
2019-03-24T09:20:11.986Z,26.70
2019-03-24T09:22:14.198Z,28.40
2019-03-24T09:24:16.422Z,29.93
2019-03-24T09:26:18.632Z,28.90
2019-03-24T09:28:20.857Z,27.60
2019-03-24T09:30:27.762Z,27.97
2019-03-24T09:32:29.973Z,26.93
2019-03-24T09:34:32.174Z,27.47
2019-03-24T09:36:34.377Z,27.47
2019-03-24T09:38:36.594Z,27.63
2019-03-24T09:40:38.920Z,29.30
2019-03-24T09:42:41.232Z,28.30
2019-03-24T09:44:43.442Z,28.20
2019-03-24T09:46:45.644Z,27.23
2019-03-24T09:48:47.857Z,28.50
2019-03-24T09:50:50.065Z,27.70
2019-03-24T09:52:52.289Z,29.63
2019-03-24T09:54:54.489Z,28.90
2019-03-24T09:56:56.697Z,27.73
2019-03-24T09:58:58.930Z,26.40
2019-03-24T10:01:01.143Z,27.17
2019-03-24T10:03:03.374Z,28.20
2019-03-24T10:05:05.577Z,28.00
2019-03-24T10:07:07.784Z,26.83
2019-03-24T10:09:10.003Z,24.17
2019-03-24T10:11:12.210Z,24.37
2019-03-24T10:13:14.921Z,24.30
2019-03-24T10:15:17.233Z,24.67
2019-03-24T10:17:19.438Z,25.40
2019-03-24T10:19:21.655Z,23.23
2019-03-24T10:21:24.190Z,20.53
2019-03-24T10:23:26.409Z,22.53
2019-03-24T10:25:28.608Z,21.50
2019-03-24T10:27:30.838Z,23.40
2019-03-24T10:29:33.059Z,24.47
2019-03-24T10:31:35.267Z,22.73
2019-03-24T10:33:37.493Z,21.57
2019-03-24T10:35:39.721Z,24.20
2019-03-24T10:37:41.929Z,22.77
2019-03-24T10:39:44.153Z,21.23
2019-03-24T10:41:46.365Z,21.60
2019-03-24T10:43:48.910Z,20.90
2019-03-24T10:45:51.121Z,22.60
2019-03-24T10:47:53.648Z,21.50
2019-03-24T10:49:55.862Z,21.90
2019-03-24T10:51:58.078Z,21.13
2019-03-24T10:54:00.575Z,22.70
2019-03-24T10:56:02.789Z,16.43
2019-03-24T10:58:05.017Z,14.40
2019-03-24T11:00:08.356Z,16.27
2019-03-24T11:02:10.565Z,19.30
2019-03-24T11:04:12.785Z,17.40
2019-03-24T11:06:14.997Z,17.30
2019-03-24T11:08:17.271Z,17.10
2019-03-24T11:10:19.534Z,17.03
2019-03-24T11:12:21.742Z,15.90
2019-03-24T11:14:23.958Z,16.87
2019-03-24T11:16:26.165Z,15.90
2019-03-24T11:18:28.383Z,9.73
2019-03-24T11:20:30.588Z,7.70
2019-03-24T11:22:32.811Z,14.57
2019-03-24T11:24:35.029Z,16.60
2019-03-24T11:26:37.238Z,15.43
2019-03-24T11:28:39.785Z,16.30
2019-03-24T11:30:41.996Z,16.07
2019-03-24T11:32:44.234Z,14.70
2019-03-24T11:34:46.453Z,16.20
2019-03-24T11:36:48.666Z,19.00
2019-03-24T11:38:50.897Z,16.30
2019-03-24T11:40:53.102Z,16.10
2019-03-24T11:42:55.314Z,16.00
2019-03-24T11:44:57.530Z,14.80
2019-03-24T11:47:00.081Z,17.20
2019-03-24T11:49:02.305Z,14.10
2019-03-24T11:51:04.538Z,13.73
2019-03-24T11:53:06.750Z,12.07
2019-03-24T11:55:09.212Z,13.67
2019-03-24T11:57:11.425Z,13.47
2019-03-24T11:59:13.674Z,10.80
2019-03-24T12:01:15.877Z,10.17
2019-03-24T12:03:18.093Z,8.93
2019-03-24T12:05:20.322Z,6.37
2019-03-24T12:07:22.537Z,7.70
2019-03-24T12:09:24.769Z,7.30
2019-03-24T12:11:27.273Z,7.10
2019-03-24T12:13:29.486Z,6.90
2019-03-24T12:15:31.747Z,5.85
2019-03-24T12:17:34.034Z,6.70
2019-03-24T12:19:36.262Z,6.67
2019-03-24T12:21:38.478Z,5.23
2019-03-24T12:23:40.690Z,5.47
2019-03-24T12:25:42.938Z,5.10
2019-03-24T12:27:45.141Z,5.40
2019-03-24T12:29:47.371Z,6.00
2019-03-24T12:31:49.590Z,5.27
2019-03-24T12:33:51.805Z,5.90
2019-03-24T12:35:54.030Z,5.97
2019-03-24T12:37:56.232Z,5.73
2019-03-24T12:39:58.722Z,5.63
2019-03-24T12:42:00.934Z,4.60
2019-03-24T12:44:03.176Z,4.23
2019-03-24T12:46:05.404Z,4.60
2019-03-24T12:48:07.924Z,4.60
2019-03-24T12:50:10.439Z,4.03
2019-03-24T12:52:13.214Z,2.90
2019-03-24T12:54:15.573Z,3.90
2019-03-24T12:56:17.810Z,3.23
2019-03-24T12:58:20.021Z,4.20
2019-03-24T13:00:41.669Z,3.47
2019-03-24T13:02:44.201Z,2.43
2019-03-24T13:04:46.425Z,2.50
2019-03-24T13:06:48.637Z,2.70
2019-03-24T13:08:50.857Z,1.60
2019-03-24T13:10:53.074Z,2.43
2019-03-24T13:12:55.284Z,2.57
2019-03-24T13:14:57.837Z,2.37
2019-03-24T13:17:00.052Z,3.23
2019-03-24T13:19:02.299Z,4.07
2019-03-24T13:21:04.616Z,5.23
2019-03-24T13:23:06.924Z,5.50
2019-03-24T13:25:09.397Z,5.57
2019-03-24T13:27:11.605Z,5.17
2019-03-24T13:29:13.814Z,4.40
2019-03-24T13:31:16.145Z,6.33
2019-03-24T13:33:18.359Z,5.60
2019-03-24T13:35:20.580Z,5.30
2019-03-24T13:37:23.138Z,3.60
2019-03-24T13:39:25.605Z,6.90
2019-03-24T13:41:27.829Z,6.70
2019-03-24T13:43:30.046Z,7.87
2019-03-24T13:45:32.270Z,7.23
2019-03-24T13:47:34.496Z,8.07
2019-03-24T13:49:36.709Z,9.00
2019-03-24T13:51:39.201Z,7.13
2019-03-24T13:53:41.417Z,7.30
2019-03-24T13:55:43.640Z,7.37
2019-03-24T13:57:45.849Z,7.80
2019-03-24T13:59:48.086Z,6.90
2019-03-24T14:01:50.326Z,7.03
2019-03-24T14:03:52.546Z,6.47
2019-03-24T14:05:54.764Z,7.10
2019-03-24T14:07:56.982Z,6.43
2019-03-24T14:09:59.189Z,7.80
2019-03-24T14:12:01.418Z,6.40
2019-03-24T14:14:03.711Z,6.40
2019-03-24T14:16:05.929Z,5.70
2019-03-24T14:18:08.146Z,6.77
2019-03-24T14:20:10.501Z,6.07
2019-03-24T14:22:12.723Z,4.50
2019-03-24T14:24:14.937Z,5.30
2019-03-24T14:26:17.157Z,4.70
2019-03-24T14:28:19.369Z,3.67
2019-03-24T14:30:38.937Z,3.20
2019-03-24T14:32:41.181Z,2.73
2019-03-24T14:34:43.393Z,2.97
2019-03-24T14:36:45.620Z,3.30
2019-03-24T14:38:48.138Z,3.50
2019-03-24T14:40:50.349Z,3.80
2019-03-24T14:42:52.577Z,5.00
2019-03-24T14:44:54.802Z,6.50
2019-03-24T14:46:57.070Z,6.43
2019-03-24T14:48:59.340Z,7.13
2019-03-24T14:51:01.561Z,7.23
2019-03-24T14:53:03.792Z,7.50
2019-03-24T14:55:06.356Z,7.67
2019-03-24T14:57:08.574Z,7.93
2019-03-24T14:59:10.809Z,7.73
2019-03-24T15:01:13.082Z,6.80
2019-03-24T15:03:15.358Z,6.90
2019-03-24T15:05:17.573Z,6.80
2019-03-24T15:07:19.810Z,6.70
2019-03-24T15:09:22.024Z,4.67
2019-03-24T15:11:24.241Z,4.43
2019-03-24T15:13:26.453Z,3.50
2019-03-24T15:15:28.673Z,3.60
2019-03-24T15:17:30.897Z,3.70
2019-03-24T15:19:33.133Z,3.80
2019-03-24T15:21:35.362Z,4.10
2019-03-24T15:23:37.569Z,4.07
2019-03-24T15:25:39.785Z,4.07
2019-03-24T15:27:42.014Z,4.30
2019-03-24T15:29:44.233Z,4.33
2019-03-24T15:31:46.502Z,4.17
2019-03-24T15:33:48.762Z,3.70
2019-03-24T15:35:50.974Z,3.97
2019-03-24T15:37:53.534Z,3.90
2019-03-24T15:39:55.747Z,4.20
2019-03-24T15:41:57.970Z,3.67
2019-03-24T15:44:00.183Z,3.60
2019-03-24T15:46:02.456Z,3.83
2019-03-24T15:48:04.680Z,4.50
2019-03-24T15:50:07.705Z,4.00
2019-03-24T15:52:10.492Z,3.20
2019-03-24T15:54:13.455Z,2.60
2019-03-24T15:56:15.822Z,3.03
2019-03-24T15:58:18.289Z,3.47
2019-03-24T16:00:46.305Z,3.73
2019-03-24T16:02:48.529Z,2.70
2019-03-24T16:04:50.745Z,2.90
2019-03-24T16:06:53.315Z,3.03
2019-03-24T16:08:55.534Z,3.17
2019-03-24T16:10:58.054Z,3.30
2019-03-24T16:13:00.266Z,3.43
2019-03-24T16:15:02.585Z,2.73
2019-03-24T16:17:04.816Z,2.73
2019-03-24T16:19:07.030Z,3.73
2019-03-24T16:21:09.241Z,3.80
2019-03-24T16:23:11.538Z,3.20
2019-03-24T16:25:13.756Z,3.30
2019-03-24T16:27:16.281Z,3.20
2019-03-24T16:29:18.488Z,3.00
2019-03-24T16:31:20.709Z,2.80
2019-03-24T16:33:22.937Z,3.40
2019-03-24T16:35:25.160Z,3.77
2019-03-24T16:37:27.386Z,3.57
2019-03-24T16:39:29.598Z,4.07
2019-03-24T16:41:31.824Z,3.30
2019-03-24T16:43:34.041Z,3.87
2019-03-24T16:45:36.265Z,4.20
2019-03-24T16:47:38.798Z,4.17
2019-03-24T16:49:41.004Z,4.37
2019-03-24T16:51:43.226Z,4.40
2019-03-24T16:53:45.453Z,4.17
2019-03-24T16:55:47.711Z,4.87
2019-03-24T16:57:50.281Z,4.20
2019-03-24T16:59:52.505Z,4.27
2019-03-24T17:01:55.011Z,4.30
2019-03-24T17:03:57.794Z,4.60
2019-03-24T17:06:00.016Z,4.60
2019-03-24T17:08:02.251Z,3.90
2019-03-24T17:10:04.898Z,3.30
2019-03-24T17:12:07.674Z,3.37
2019-03-24T17:14:10.182Z,3.30
2019-03-24T17:16:12.446Z,3.33
2019-03-24T17:18:14.673Z,3.50
2019-03-24T17:20:16.909Z,3.60
2019-03-24T17:22:19.126Z,3.80
2019-03-24T17:24:21.353Z,3.37
2019-03-24T17:26:23.571Z,4.00
2019-03-24T17:28:25.857Z,3.70
2019-03-24T17:30:28.078Z,3.43
2019-03-24T17:32:30.294Z,3.07
2019-03-24T17:34:32.572Z,4.00
2019-03-24T17:36:34.782Z,3.57
2019-03-24T17:38:37.025Z,3.97
2019-03-24T17:40:39.313Z,4.03
2019-03-24T17:42:41.573Z,3.37
2019-03-24T17:44:43.788Z,4.33
2019-03-24T17:46:46.011Z,4.80
2019-03-24T17:48:48.238Z,4.53
2019-03-24T17:50:50.502Z,4.53
2019-03-24T17:52:53.105Z,3.73
2019-03-24T17:54:55.334Z,4.10
2019-03-24T17:56:57.842Z,3.90
2019-03-24T17:59:00.431Z,3.97
2019-03-24T18:01:02.646Z,3.37
2019-03-24T18:03:04.973Z,4.03
2019-03-24T18:05:07.526Z,3.97
2019-03-24T18:07:10.034Z,3.70
2019-03-24T18:09:12.561Z,3.97
2019-03-24T18:11:14.771Z,3.17
2019-03-24T18:13:16.993Z,3.47
2019-03-24T18:15:19.225Z,3.43
2019-03-24T18:17:21.446Z,3.50
2019-03-24T18:19:23.945Z,3.70
2019-03-24T18:21:26.165Z,4.70
2019-03-24T18:23:28.377Z,3.43
2019-03-24T18:25:30.613Z,4.10
2019-03-24T18:27:32.833Z,4.60
2019-03-24T18:29:35.073Z,4.03
2019-03-24T18:31:37.315Z,4.47
2019-03-24T18:33:39.861Z,3.93
2019-03-24T18:35:42.072Z,4.97
2019-03-24T18:37:44.325Z,4.50
2019-03-24T18:39:46.544Z,5.37
2019-03-24T18:41:48.801Z,4.73
2019-03-24T18:43:51.289Z,5.30
2019-03-24T18:45:53.496Z,5.70
2019-03-24T18:47:55.721Z,5.50
2019-03-24T18:49:57.953Z,5.27
2019-03-24T18:52:00.172Z,5.70
2019-03-24T18:54:02.778Z,6.20
2019-03-24T18:56:05.053Z,4.50
2019-03-24T18:58:07.282Z,5.33
2019-03-24T19:00:09.824Z,4.97
2019-03-24T19:02:12.065Z,5.43
2019-03-24T19:04:14.610Z,4.97
2019-03-24T19:06:17.173Z,4.93
2019-03-24T19:08:19.639Z,5.67
2019-03-24T19:10:22.181Z,5.27
2019-03-24T19:12:24.405Z,5.40
2019-03-24T19:14:26.922Z,6.40
2019-03-24T19:16:29.144Z,6.40
2019-03-24T19:18:31.374Z,6.07
2019-03-24T19:20:33.630Z,6.23
2019-03-24T19:22:35.865Z,5.40
2019-03-24T19:24:38.113Z,4.90
2019-03-24T19:26:40.334Z,5.70
2019-03-24T19:28:42.825Z,5.30
2019-03-24T19:30:45.087Z,6.07
2019-03-24T19:32:47.319Z,5.80
2019-03-24T19:34:49.555Z,6.00
2019-03-24T19:36:51.774Z,5.57
2019-03-24T19:38:53.994Z,6.60
2019-03-24T19:40:56.225Z,5.37
2019-03-24T19:42:58.450Z,5.50
2019-03-24T19:45:01.022Z,5.37
2019-03-24T19:47:03.253Z,5.40
2019-03-24T19:49:05.482Z,6.10
2019-03-24T19:51:08.029Z,5.10
2019-03-24T19:53:10.245Z,5.90
2019-03-24T19:55:12.815Z,6.13
2019-03-24T19:57:15.081Z,7.13
2019-03-24T19:59:17.323Z,6.40
2019-03-24T20:01:19.906Z,6.53
2019-03-24T20:03:22.117Z,6.93
2019-03-24T20:05:26.859Z,6.30
2019-03-24T20:07:28.825Z,6.20
2019-03-24T20:09:31.045Z,7.40
2019-03-24T20:11:33.282Z,6.60
2019-03-24T20:13:35.508Z,6.03
2019-03-24T20:15:37.737Z,6.17
2019-03-24T20:17:40.280Z,4.60
2019-03-24T20:19:42.497Z,5.47
2019-03-24T20:21:44.730Z,5.67
2019-03-24T20:23:46.945Z,4.53
2019-03-24T20:25:49.174Z,4.60
2019-03-24T20:27:51.396Z,5.17
2019-03-24T20:29:53.609Z,4.97
2019-03-24T20:31:55.838Z,5.40
2019-03-24T20:33:58.375Z,4.83
2019-03-24T20:36:00.610Z,4.80
2019-03-24T20:38:02.829Z,5.10
2019-03-24T20:40:05.121Z,5.60
2019-03-24T20:42:07.355Z,4.67
2019-03-24T20:44:11.392Z,5.23
2019-03-24T20:46:13.722Z,4.87
2019-03-24T20:48:16.181Z,4.83
2019-03-24T20:50:18.401Z,3.93
2019-03-24T20:52:20.637Z,4.90
2019-03-24T20:54:22.861Z,4.40
2019-03-24T20:56:25.097Z,3.83
2019-03-24T20:58:27.316Z,4.93
2019-03-24T21:00:33.733Z,4.63
2019-03-24T21:02:36.270Z,5.90
2019-03-24T21:04:38.485Z,4.37
2019-03-24T21:06:40.717Z,5.40
2019-03-24T21:08:42.937Z,4.27
2019-03-24T21:10:45.421Z,3.90
2019-03-24T21:12:47.649Z,4.03
2019-03-24T21:14:50.189Z,4.60
2019-03-24T21:16:53.302Z,4.03
2019-03-24T21:18:55.809Z,5.13
2019-03-24T21:20:58.050Z,3.83
2019-03-24T21:23:00.269Z,4.33
2019-03-24T21:25:03.146Z,4.20
2019-03-24T21:27:07.136Z,3.97
2019-03-24T21:29:09.493Z,3.93
2019-03-24T21:31:11.737Z,4.40
2019-03-24T21:33:13.957Z,4.10
2019-03-24T21:35:16.178Z,4.40
2019-03-24T21:37:18.419Z,3.77
2019-03-24T21:39:20.644Z,4.57
2019-03-24T21:41:22.874Z,4.00
2019-03-24T21:43:25.098Z,4.47
2019-03-24T21:45:27.625Z,3.63
2019-03-24T21:47:29.841Z,5.03
2019-03-24T21:49:32.066Z,4.13
2019-03-24T21:51:34.305Z,3.97
2019-03-24T21:53:40.829Z,4.93
2019-03-24T21:55:40.649Z,3.17
2019-03-24T21:57:42.886Z,3.63
2019-03-24T21:59:45.122Z,3.20
2019-03-24T22:01:48.422Z,3.70
2019-03-24T22:03:50.637Z,4.27
2019-03-24T22:05:53.091Z,4.20
2019-03-24T22:07:55.321Z,4.33
2019-03-24T22:09:57.533Z,4.20
2019-03-24T22:12:00.011Z,3.63
2019-03-24T22:14:02.343Z,4.40
2019-03-24T22:16:04.552Z,3.57
2019-03-24T22:18:06.790Z,3.57
2019-03-24T22:20:09.046Z,3.83
2019-03-24T22:22:11.282Z,3.80
2019-03-24T22:24:13.505Z,3.80
2019-03-24T22:26:15.729Z,3.67
2019-03-24T22:28:17.963Z,3.93
2019-03-24T22:30:20.202Z,4.20
2019-03-24T22:32:22.473Z,4.00
2019-03-24T22:34:24.697Z,3.70
2019-03-24T22:36:26.917Z,4.00
2019-03-24T22:38:29.158Z,5.00
2019-03-24T22:40:31.373Z,3.80
2019-03-24T22:42:33.617Z,4.83
2019-03-24T22:44:36.102Z,4.77
2019-03-24T22:46:38.329Z,4.80
2019-03-24T22:48:40.889Z,4.80
2019-03-24T22:50:43.113Z,4.67
2019-03-24T22:52:45.354Z,4.30
2019-03-24T22:54:47.870Z,4.13
2019-03-24T22:56:50.156Z,4.43
2019-03-24T22:58:52.462Z,4.10
2019-03-24T23:00:54.956Z,4.10
2019-03-24T23:02:57.221Z,5.10
2019-03-24T23:04:59.520Z,3.93
2019-03-24T23:07:01.754Z,4.47
2019-03-24T23:09:06.982Z,4.63
2019-03-24T23:11:09.210Z,4.77
2019-03-24T23:13:11.437Z,4.37
2019-03-24T23:15:13.994Z,4.73
2019-03-24T23:17:16.220Z,4.33
2019-03-24T23:19:18.436Z,4.37
2019-03-24T23:21:20.671Z,4.50
2019-03-24T23:23:22.902Z,4.57
2019-03-24T23:25:25.420Z,4.60
2019-03-24T23:27:27.651Z,5.37
2019-03-24T23:29:29.880Z,5.80
2019-03-24T23:31:34.037Z,5.57
2019-03-24T23:33:36.243Z,4.50
2019-03-24T23:35:38.467Z,5.00
2019-03-24T23:37:40.694Z,5.00
2019-03-24T23:39:42.919Z,4.47
2019-03-24T23:41:45.526Z,4.20
2019-03-24T23:43:47.761Z,4.00
2019-03-24T23:45:49.977Z,4.53
2019-03-24T23:47:52.213Z,3.90
2019-03-24T23:49:54.433Z,5.50
2019-03-24T23:51:56.957Z,4.40
2019-03-24T23:53:59.184Z,4.50
2019-03-24T23:56:01.401Z,4.73
2019-03-24T23:58:03.634Z,4.00
